sensor_id;sensor_type;location;lat;lon;timestamp;temperature;humidity
60965;DHT22;46834;51.100;6.886;2023-03-02T00:01:03;3.70;32.90
60965;DHT22;46834;51.100;6.886;2023-03-02T00:03:33;3.80;33.10
60965;DHT22;46834;51.100;6.886;2023-03-02T00:06:01;3.70;32.90
60965;DHT22;46834;51.100;6.886;2023-03-02T00:08:27;3.70;32.90
60965;DHT22;46834;51.100;6.886;2023-03-02T00:10:55;3.70;33.00
60965;DHT22;46834;51.100;6.886;2023-03-02T00:13:22;3.70;33.00
60965;DHT22;46834;51.100;6.886;2023-03-02T00:15:48;3.70;33.00
60965;DHT22;46834;51.100;6.886;2023-03-02T00:18:14;3.60;33.00
60965;DHT22;46834;51.100;6.886;2023-03-02T00:20:40;3.60;33.00
60965;DHT22;46834;51.100;6.886;2023-03-02T00:23:05;3.60;33.00
60965;DHT22;46834;51.100;6.886;2023-03-02T00:25:31;3.60;33.10
60965;DHT22;46834;51.100;6.886;2023-03-02T00:27:57;3.60;33.10
60965;DHT22;46834;51.100;6.886;2023-03-02T00:30:23;3.60;33.70
60965;DHT22;46834;51.100;6.886;2023-03-02T00:32:48;3.50;33.60
60965;DHT22;46834;51.100;6.886;2023-03-02T00:35:14;3.50;33.00
60965;DHT22;46834;51.100;6.886;2023-03-02T00:37:40;3.50;33.10
60965;DHT22;46834;51.100;6.886;2023-03-02T00:40:07;3.50;33.70
60965;DHT22;46834;51.100;6.886;2023-03-02T00:42:35;3.50;33.10
60965;DHT22;46834;51.100;6.886;2023-03-02T00:45:02;3.50;33.10
60965;DHT22;46834;51.100;6.886;2023-03-02T00:47:32;3.40;33.10
60965;DHT22;46834;51.100;6.886;2023-03-02T00:50:00;3.40;33.10
60965;DHT22;46834;51.100;6.886;2023-03-02T00:52:27;3.40;33.20
60965;DHT22;46834;51.100;6.886;2023-03-02T00:54:54;3.40;33.10
60965;DHT22;46834;51.100;6.886;2023-03-02T00:57:20;3.40;33.20
60965;DHT22;46834;51.100;6.886;2023-03-02T00:59:45;3.40;33.20
60965;DHT22;46834;51.100;6.886;2023-03-02T01:02:11;3.40;33.20
60965;DHT22;46834;51.100;6.886;2023-03-02T01:04:39;3.40;33.20
60965;DHT22;46834;51.100;6.886;2023-03-02T01:07:11;3.40;33.30
60965;DHT22;46834;51.100;6.886;2023-03-02T01:09:41;3.40;33.30
60965;DHT22;46834;51.100;6.886;2023-03-02T01:12:07;3.30;33.10
60965;DHT22;46834;51.100;6.886;2023-03-02T01:14:37;3.30;33.10
60965;DHT22;46834;51.100;6.886;2023-03-02T01:17:05;3.30;33.20
60965;DHT22;46834;51.100;6.886;2023-03-02T01:19:32;3.30;33.30
60965;DHT22;46834;51.100;6.886;2023-03-02T01:21:58;3.30;33.30
60965;DHT22;46834;51.100;6.886;2023-03-02T01:24:24;3.30;33.50
60965;DHT22;46834;51.100;6.886;2023-03-02T01:26:50;3.30;33.60
60965;DHT22;46834;51.100;6.886;2023-03-02T01:29:16;3.30;33.70
60965;DHT22;46834;51.100;6.886;2023-03-02T01:31:42;3.20;33.70
60965;DHT22;46834;51.100;6.886;2023-03-02T01:34:08;3.20;33.80
60965;DHT22;46834;51.100;6.886;2023-03-02T01:36:33;3.20;33.90
60965;DHT22;46834;51.100;6.886;2023-03-02T01:38:59;3.20;34.00
60965;DHT22;46834;51.100;6.886;2023-03-02T01:41:25;3.20;34.10
60965;DHT22;46834;51.100;6.886;2023-03-02T01:43:52;3.20;34.10
60965;DHT22;46834;51.100;6.886;2023-03-02T01:46:21;3.20;34.20
60965;DHT22;46834;51.100;6.886;2023-03-02T01:49:02;3.20;34.30
60965;DHT22;46834;51.100;6.886;2023-03-02T01:51:34;3.20;34.30
60965;DHT22;46834;51.100;6.886;2023-03-02T01:54:07;3.20;34.30
60965;DHT22;46834;51.100;6.886;2023-03-02T01:56:41;3.10;34.30
60965;DHT22;46834;51.100;6.886;2023-03-02T01:59:12;3.10;34.20
60965;DHT22;46834;51.100;6.886;2023-03-02T02:01:43;3.10;34.40
60965;DHT22;46834;51.100;6.886;2023-03-02T02:04:12;3.10;34.40
60965;DHT22;46834;51.100;6.886;2023-03-02T02:06:54;3.10;34.40
60965;DHT22;46834;51.100;6.886;2023-03-02T02:09:24;3.00;34.80
60965;DHT22;46834;51.100;6.886;2023-03-02T02:11:52;3.00;34.40
60965;DHT22;46834;51.100;6.886;2023-03-02T02:14:18;3.00;34.50
60965;DHT22;46834;51.100;6.886;2023-03-02T02:16:44;3.00;34.60
60965;DHT22;46834;51.100;6.886;2023-03-02T02:22:25;3.00;35.10
60965;DHT22;46834;51.100;6.886;2023-03-02T02:28:41;3.00;35.60
60965;DHT22;46834;51.100;6.886;2023-03-02T02:31:19;3.00;34.70
60965;DHT22;46834;51.100;6.886;2023-03-02T02:34:28;3.00;34.80
60965;DHT22;46834;51.100;6.886;2023-03-02T02:37:05;2.90;35.00
60965;DHT22;46834;51.100;6.886;2023-03-02T02:39:39;2.90;34.80
60965;DHT22;46834;51.100;6.886;2023-03-02T02:42:13;2.90;34.70
60965;DHT22;46834;51.100;6.886;2023-03-02T02:44:42;2.90;34.80
60965;DHT22;46834;51.100;6.886;2023-03-02T02:47:16;2.80;34.70
60965;DHT22;46834;51.100;6.886;2023-03-02T02:49:44;2.80;35.10
60965;DHT22;46834;51.100;6.886;2023-03-02T02:52:15;2.80;34.80
60965;DHT22;46834;51.100;6.886;2023-03-02T02:54:45;2.80;35.00
60965;DHT22;46834;51.100;6.886;2023-03-02T02:57:14;2.80;35.00
60965;DHT22;46834;51.100;6.886;2023-03-02T02:59:45;2.70;34.90
60965;DHT22;46834;51.100;6.886;2023-03-02T03:02:18;2.70;35.00
60965;DHT22;46834;51.100;6.886;2023-03-02T03:04:47;2.70;35.00
60965;DHT22;46834;51.100;6.886;2023-03-02T03:07:22;2.70;35.00
60965;DHT22;46834;51.100;6.886;2023-03-02T03:10:11;2.70;35.20
60965;DHT22;46834;51.100;6.886;2023-03-02T03:12:42;2.70;35.40
60965;DHT22;46834;51.100;6.886;2023-03-02T03:15:08;2.70;34.90
60965;DHT22;46834;51.100;6.886;2023-03-02T03:17:34;2.70;34.90
60965;DHT22;46834;51.100;6.886;2023-03-02T03:20:00;2.70;35.00
60965;DHT22;46834;51.100;6.886;2023-03-02T03:22:36;2.60;34.90
60965;DHT22;46834;51.100;6.886;2023-03-02T03:25:02;2.60;35.00
60965;DHT22;46834;51.100;6.886;2023-03-02T03:27:29;2.60;35.00
60965;DHT22;46834;51.100;6.886;2023-03-02T03:29:55;2.50;34.80
60965;DHT22;46834;51.100;6.886;2023-03-02T03:32:21;2.60;35.00
60965;DHT22;46834;51.100;6.886;2023-03-02T03:34:47;2.60;35.00
60965;DHT22;46834;51.100;6.886;2023-03-02T03:37:16;2.60;35.00
60965;DHT22;46834;51.100;6.886;2023-03-02T03:39:43;2.60;35.00
60965;DHT22;46834;51.100;6.886;2023-03-02T03:42:09;2.60;35.00
60965;DHT22;46834;51.100;6.886;2023-03-02T03:44:35;2.50;35.00
60965;DHT22;46834;51.100;6.886;2023-03-02T03:47:02;2.50;34.90
60965;DHT22;46834;51.100;6.886;2023-03-02T03:49:28;2.50;35.00
60965;DHT22;46834;51.100;6.886;2023-03-02T03:51:54;2.60;35.10
60965;DHT22;46834;51.100;6.886;2023-03-02T03:54:20;2.50;35.10
60965;DHT22;46834;51.100;6.886;2023-03-02T03:56:48;2.50;35.10
60965;DHT22;46834;51.100;6.886;2023-03-02T03:59:18;2.50;35.10
60965;DHT22;46834;51.100;6.886;2023-03-02T04:01:57;2.50;35.30
60965;DHT22;46834;51.100;6.886;2023-03-02T04:04:27;2.50;35.50
60965;DHT22;46834;51.100;6.886;2023-03-02T04:06:55;2.50;35.20
60965;DHT22;46834;51.100;6.886;2023-03-02T04:09:21;2.50;35.20
60965;DHT22;46834;51.100;6.886;2023-03-02T04:11:52;2.40;35.20
60965;DHT22;46834;51.100;6.886;2023-03-02T04:14:21;2.40;35.30
60965;DHT22;46834;51.100;6.886;2023-03-02T04:16:49;2.40;35.20
60965;DHT22;46834;51.100;6.886;2023-03-02T04:19:15;2.40;35.20
60965;DHT22;46834;51.100;6.886;2023-03-02T04:21:48;2.40;35.20
60965;DHT22;46834;51.100;6.886;2023-03-02T04:24:18;2.40;35.40
60965;DHT22;46834;51.100;6.886;2023-03-02T04:26:46;2.40;35.30
60965;DHT22;46834;51.100;6.886;2023-03-02T04:29:14;2.40;35.30
60965;DHT22;46834;51.100;6.886;2023-03-02T04:31:40;2.30;35.20
60965;DHT22;46834;51.100;6.886;2023-03-02T04:34:06;2.30;35.20
60965;DHT22;46834;51.100;6.886;2023-03-02T04:36:34;2.30;35.20
60965;DHT22;46834;51.100;6.886;2023-03-02T04:39:03;2.30;35.20
60965;DHT22;46834;51.100;6.886;2023-03-02T04:41:29;2.30;35.10
60965;DHT22;46834;51.100;6.886;2023-03-02T04:43:55;2.30;35.10
60965;DHT22;46834;51.100;6.886;2023-03-02T04:46:24;2.30;35.10
60965;DHT22;46834;51.100;6.886;2023-03-02T04:48:51;2.30;35.20
60965;DHT22;46834;51.100;6.886;2023-03-02T04:51:29;2.30;35.10
60965;DHT22;46834;51.100;6.886;2023-03-02T04:54:04;2.30;35.40
60965;DHT22;46834;51.100;6.886;2023-03-02T04:56:32;2.30;35.20
60965;DHT22;46834;51.100;6.886;2023-03-02T04:58:58;2.20;35.00
60965;DHT22;46834;51.100;6.886;2023-03-02T05:01:25;2.20;35.00
60965;DHT22;46834;51.100;6.886;2023-03-02T05:03:52;2.20;35.00
60965;DHT22;46834;51.100;6.886;2023-03-02T05:06:19;2.20;35.10
60965;DHT22;46834;51.100;6.886;2023-03-02T05:08:46;2.20;35.10
60965;DHT22;46834;51.100;6.886;2023-03-02T05:11:13;2.20;35.10
60965;DHT22;46834;51.100;6.886;2023-03-02T05:13:54;2.20;35.10
60965;DHT22;46834;51.100;6.886;2023-03-02T05:16:23;2.20;35.20
60965;DHT22;46834;51.100;6.886;2023-03-02T05:18:50;2.20;35.10
60965;DHT22;46834;51.100;6.886;2023-03-02T05:21:17;2.10;35.00
60965;DHT22;46834;51.100;6.886;2023-03-02T05:23:43;2.10;35.00
60965;DHT22;46834;51.100;6.886;2023-03-02T05:26:09;2.10;35.00
60965;DHT22;46834;51.100;6.886;2023-03-02T05:28:35;2.10;35.10
60965;DHT22;46834;51.100;6.886;2023-03-02T05:31:01;2.10;35.00
60965;DHT22;46834;51.100;6.886;2023-03-02T05:33:28;2.10;35.00
60965;DHT22;46834;51.100;6.886;2023-03-02T05:35:55;2.10;35.00
60965;DHT22;46834;51.100;6.886;2023-03-02T05:38:21;2.10;35.00
60965;DHT22;46834;51.100;6.886;2023-03-02T05:40:47;2.10;35.00
60965;DHT22;46834;51.100;6.886;2023-03-02T05:43:18;2.00;35.00
60965;DHT22;46834;51.100;6.886;2023-03-02T05:45:45;2.00;35.10
60965;DHT22;46834;51.100;6.886;2023-03-02T05:48:14;2.00;35.00
60965;DHT22;46834;51.100;6.886;2023-03-02T05:50:40;2.00;35.10
60965;DHT22;46834;51.100;6.886;2023-03-02T05:53:06;2.00;35.00
60965;DHT22;46834;51.100;6.886;2023-03-02T05:55:32;2.00;35.10
60965;DHT22;46834;51.100;6.886;2023-03-02T05:58:06;2.00;35.20
60965;DHT22;46834;51.100;6.886;2023-03-02T06:00:35;2.00;35.50
60965;DHT22;46834;51.100;6.886;2023-03-02T06:03:01;2.00;35.40
60965;DHT22;46834;51.100;6.886;2023-03-02T06:05:27;2.00;35.50
60965;DHT22;46834;51.100;6.886;2023-03-02T06:07:52;2.00;35.50
60965;DHT22;46834;51.100;6.886;2023-03-02T06:10:19;2.00;35.60
60965;DHT22;46834;51.100;6.886;2023-03-02T06:12:45;2.00;35.60
60965;DHT22;46834;51.100;6.886;2023-03-02T06:15:10;2.00;35.60
60965;DHT22;46834;51.100;6.886;2023-03-02T06:17:36;2.00;35.60
60965;DHT22;46834;51.100;6.886;2023-03-02T06:20:02;2.00;35.70
60965;DHT22;46834;51.100;6.886;2023-03-02T06:22:35;2.00;35.70
60965;DHT22;46834;51.100;6.886;2023-03-02T06:25:10;2.00;35.70
60965;DHT22;46834;51.100;6.886;2023-03-02T06:27:39;2.00;35.70
60965;DHT22;46834;51.100;6.886;2023-03-02T06:30:06;2.00;35.80
60965;DHT22;46834;51.100;6.886;2023-03-02T06:32:35;2.00;35.80
60965;DHT22;46834;51.100;6.886;2023-03-02T06:35:02;2.10;35.90
60965;DHT22;46834;51.100;6.886;2023-03-02T06:37:30;2.10;35.90
60965;DHT22;46834;51.100;6.886;2023-03-02T06:39:56;2.10;35.90
60965;DHT22;46834;51.100;6.886;2023-03-02T06:42:24;2.10;35.90
60965;DHT22;46834;51.100;6.886;2023-03-02T06:44:51;2.10;36.00
60965;DHT22;46834;51.100;6.886;2023-03-02T06:47:19;2.10;36.00
60965;DHT22;46834;51.100;6.886;2023-03-02T06:49:46;2.20;36.20
60965;DHT22;46834;51.100;6.886;2023-03-02T06:52:12;2.20;36.20
60965;DHT22;46834;51.100;6.886;2023-03-02T06:54:39;2.30;36.50
60965;DHT22;46834;51.100;6.886;2023-03-02T06:57:05;2.30;36.60
60965;DHT22;46834;51.100;6.886;2023-03-02T06:59:31;2.40;36.50
60965;DHT22;46834;51.100;6.886;2023-03-02T07:01:56;2.50;36.50
60965;DHT22;46834;51.100;6.886;2023-03-02T07:04:22;2.50;36.30
60965;DHT22;46834;51.100;6.886;2023-03-02T07:06:47;2.60;36.40
60965;DHT22;46834;51.100;6.886;2023-03-02T07:09:13;2.60;36.30
60965;DHT22;46834;51.100;6.886;2023-03-02T07:11:39;2.60;36.20
60965;DHT22;46834;51.100;6.886;2023-03-02T07:14:05;2.60;36.20
60965;DHT22;46834;51.100;6.886;2023-03-02T07:16:33;2.70;36.20
60965;DHT22;46834;51.100;6.886;2023-03-02T07:18:59;2.70;36.30
60965;DHT22;46834;51.100;6.886;2023-03-02T07:21:25;2.80;36.30
60965;DHT22;46834;51.100;6.886;2023-03-02T07:23:51;2.80;36.30
60965;DHT22;46834;51.100;6.886;2023-03-02T07:26:17;2.80;36.30
60965;DHT22;46834;51.100;6.886;2023-03-02T07:28:43;2.80;36.20
60965;DHT22;46834;51.100;6.886;2023-03-02T07:31:10;2.80;36.20
60965;DHT22;46834;51.100;6.886;2023-03-02T07:33:37;2.80;36.10
60965;DHT22;46834;51.100;6.886;2023-03-02T07:36:04;2.90;36.10
60965;DHT22;46834;51.100;6.886;2023-03-02T07:38:31;2.90;36.00
60965;DHT22;46834;51.100;6.886;2023-03-02T07:40:57;2.90;36.00
60965;DHT22;46834;51.100;6.886;2023-03-02T07:43:23;3.00;36.00
60965;DHT22;46834;51.100;6.886;2023-03-02T07:45:51;3.00;36.00
60965;DHT22;46834;51.100;6.886;2023-03-02T07:48:17;3.00;36.00
60965;DHT22;46834;51.100;6.886;2023-03-02T07:50:44;3.00;36.00
60965;DHT22;46834;51.100;6.886;2023-03-02T07:53:10;3.10;36.00
60965;DHT22;46834;51.100;6.886;2023-03-02T07:55:42;3.10;35.90
60965;DHT22;46834;51.100;6.886;2023-03-02T07:58:08;3.20;36.00
60965;DHT22;46834;51.100;6.886;2023-03-02T08:00:33;3.20;35.90
60965;DHT22;46834;51.100;6.886;2023-03-02T08:03:01;3.30;35.80
60965;DHT22;46834;51.100;6.886;2023-03-02T08:05:26;3.30;35.80
60965;DHT22;46834;51.100;6.886;2023-03-02T08:07:52;3.40;35.90
60965;DHT22;46834;51.100;6.886;2023-03-02T08:10:18;3.40;35.80
60965;DHT22;46834;51.100;6.886;2023-03-02T08:12:43;3.50;35.80
60965;DHT22;46834;51.100;6.886;2023-03-02T08:15:10;3.50;35.80
60965;DHT22;46834;51.100;6.886;2023-03-02T08:17:35;3.50;35.80
60965;DHT22;46834;51.100;6.886;2023-03-02T08:20:02;3.60;35.80
60965;DHT22;46834;51.100;6.886;2023-03-02T08:22:28;3.70;35.80
60965;DHT22;46834;51.100;6.886;2023-03-02T08:24:54;3.70;35.80
60965;DHT22;46834;51.100;6.886;2023-03-02T08:27:20;3.60;35.60
60965;DHT22;46834;51.100;6.886;2023-03-02T08:29:46;3.60;36.00
60965;DHT22;46834;51.100;6.886;2023-03-02T08:32:11;3.70;36.10
60965;DHT22;46834;51.100;6.886;2023-03-02T08:34:37;3.80;36.10
60965;DHT22;46834;51.100;6.886;2023-03-02T08:37:03;3.80;36.10
60965;DHT22;46834;51.100;6.886;2023-03-02T08:39:28;3.90;36.10
60965;DHT22;46834;51.100;6.886;2023-03-02T08:41:56;4.00;36.00
60965;DHT22;46834;51.100;6.886;2023-03-02T08:44:22;4.10;35.90
60965;DHT22;46834;51.100;6.886;2023-03-02T08:46:49;4.30;35.90
60965;DHT22;46834;51.100;6.886;2023-03-02T08:49:16;4.30;35.70
60965;DHT22;46834;51.100;6.886;2023-03-02T08:51:46;4.40;35.70
60965;DHT22;46834;51.100;6.886;2023-03-02T08:54:18;4.40;35.60
60965;DHT22;46834;51.100;6.886;2023-03-02T08:56:45;4.40;35.80
60965;DHT22;46834;51.100;6.886;2023-03-02T08:59:12;4.50;35.80
60965;DHT22;46834;51.100;6.886;2023-03-02T09:01:38;4.60;35.80
60965;DHT22;46834;51.100;6.886;2023-03-02T09:04:06;4.70;35.80
60965;DHT22;46834;51.100;6.886;2023-03-02T09:06:36;4.80;35.50
60965;DHT22;46834;51.100;6.886;2023-03-02T09:09:05;4.90;35.50
60965;DHT22;46834;51.100;6.886;2023-03-02T09:11:32;5.00;35.50
60965;DHT22;46834;51.100;6.886;2023-03-02T09:13:58;5.10;35.50
60965;DHT22;46834;51.100;6.886;2023-03-02T09:16:24;5.20;35.50
60965;DHT22;46834;51.100;6.886;2023-03-02T09:18:50;5.20;35.30
60965;DHT22;46834;51.100;6.886;2023-03-02T09:21:17;5.30;35.30
60965;DHT22;46834;51.100;6.886;2023-03-02T09:23:43;5.40;35.30
60965;DHT22;46834;51.100;6.886;2023-03-02T09:26:09;5.50;35.30
60965;DHT22;46834;51.100;6.886;2023-03-02T09:28:36;5.50;35.20
60965;DHT22;46834;51.100;6.886;2023-03-02T09:31:04;5.60;35.20
60965;DHT22;46834;51.100;6.886;2023-03-02T09:33:32;5.70;35.20
60965;DHT22;46834;51.100;6.886;2023-03-02T09:35:58;5.70;35.10
60965;DHT22;46834;51.100;6.886;2023-03-02T09:38:25;5.80;35.20
60965;DHT22;46834;51.100;6.886;2023-03-02T09:41:24;5.90;35.20
60965;DHT22;46834;51.100;6.886;2023-03-02T09:44:47;6.00;34.00
60965;DHT22;46834;51.100;6.886;2023-03-02T09:50:31;6.20;34.10
60965;DHT22;46834;51.100;6.886;2023-03-02T09:53:15;6.20;34.20
60965;DHT22;46834;51.100;6.886;2023-03-02T09:56:13;6.10;33.30
60965;DHT22;46834;51.100;6.886;2023-03-02T09:59:03;6.20;33.80
60965;DHT22;46834;51.100;6.886;2023-03-02T10:01:47;6.40;33.90
60965;DHT22;46834;51.100;6.886;2023-03-02T10:04:24;6.50;33.80
60965;DHT22;46834;51.100;6.886;2023-03-02T10:07:01;6.60;33.80
60965;DHT22;46834;51.100;6.886;2023-03-02T10:09:36;6.70;33.80
60965;DHT22;46834;51.100;6.886;2023-03-02T10:12:28;6.60;33.40
60965;DHT22;46834;51.100;6.886;2023-03-02T10:15:28;6.70;33.50
60965;DHT22;46834;51.100;6.886;2023-03-02T10:27:07;7.10;33.60
60965;DHT22;46834;51.100;6.886;2023-03-02T10:30:40;7.20;33.70
60965;DHT22;46834;51.100;6.886;2023-03-02T10:32:40;7.30;34.10
60965;DHT22;46834;51.100;6.886;2023-03-02T10:37:50;7.70;34.60
60965;DHT22;46834;51.100;6.886;2023-03-02T10:46:16;8.30;34.40
60965;DHT22;46834;51.100;6.886;2023-03-02T10:48:57;8.50;34.40
60965;DHT22;46834;51.100;6.886;2023-03-02T10:51:32;8.60;33.90
60965;DHT22;46834;51.100;6.886;2023-03-02T10:54:09;8.70;33.80
60965;DHT22;46834;51.100;6.886;2023-03-02T10:56:37;8.70;33.70
60965;DHT22;46834;51.100;6.886;2023-03-02T10:59:44;8.70;33.80
60965;DHT22;46834;51.100;6.886;2023-03-02T11:04:46;8.80;33.50
60965;DHT22;46834;51.100;6.886;2023-03-02T11:07:17;8.80;33.50
60965;DHT22;46834;51.100;6.886;2023-03-02T11:10:28;8.80;33.30
60965;DHT22;46834;51.100;6.886;2023-03-02T11:13:02;8.80;33.20
60965;DHT22;46834;51.100;6.886;2023-03-02T11:20:51;8.70;33.10
60965;DHT22;46834;51.100;6.886;2023-03-02T11:26:20;8.90;32.90
60965;DHT22;46834;51.100;6.886;2023-03-02T11:31:49;9.00;33.20
60965;DHT22;46834;51.100;6.886;2023-03-02T11:34:24;9.00;31.80
60965;DHT22;46834;51.100;6.886;2023-03-02T11:37:17;9.00;32.00
60965;DHT22;46834;51.100;6.886;2023-03-02T11:48:05;9.40;32.80
60965;DHT22;46834;51.100;6.886;2023-03-02T11:53:52;9.40;33.00
60965;DHT22;46834;51.100;6.886;2023-03-02T11:56:23;9.60;32.60
60965;DHT22;46834;51.100;6.886;2023-03-02T11:58:55;9.70;32.90
60965;DHT22;46834;51.100;6.886;2023-03-02T12:01:25;9.80;32.70
60965;DHT22;46834;51.100;6.886;2023-03-02T12:03:54;9.90;32.80
60965;DHT22;46834;51.100;6.886;2023-03-02T12:06:36;10.00;32.80
60965;DHT22;46834;51.100;6.886;2023-03-02T12:11:54;10.10;32.50
60965;DHT22;46834;51.100;6.886;2023-03-02T12:14:27;10.20;32.50
60965;DHT22;46834;51.100;6.886;2023-03-02T12:17:03;10.30;32.60
60965;DHT22;46834;51.100;6.886;2023-03-02T12:19:44;10.30;32.20
60965;DHT22;46834;51.100;6.886;2023-03-02T12:22:10;10.40;32.70
60965;DHT22;46834;51.100;6.886;2023-03-02T12:24:42;10.40;32.60
60965;DHT22;46834;51.100;6.886;2023-03-02T12:29:42;10.60;32.40
60965;DHT22;46834;51.100;6.886;2023-03-02T12:32:23;10.60;32.20
60965;DHT22;46834;51.100;6.886;2023-03-02T12:35:06;10.60;31.90
60965;DHT22;46834;51.100;6.886;2023-03-02T12:37:46;10.70;31.80
60965;DHT22;46834;51.100;6.886;2023-03-02T12:43:36;10.80;32.10
60965;DHT22;46834;51.100;6.886;2023-03-02T12:49:10;10.90;32.00
60965;DHT22;46834;51.100;6.886;2023-03-02T12:51:51;11.10;31.90
60965;DHT22;46834;51.100;6.886;2023-03-02T12:54:26;11.10;31.90
60965;DHT22;46834;51.100;6.886;2023-03-02T12:59:49;11.20;31.30
60965;DHT22;46834;51.100;6.886;2023-03-02T13:02:23;11.30;31.90
60965;DHT22;46834;51.100;6.886;2023-03-02T13:05:25;11.30;31.70
60965;DHT22;46834;51.100;6.886;2023-03-02T13:08:04;11.40;31.20
60965;DHT22;46834;51.100;6.886;2023-03-02T13:10:40;11.40;31.10
60965;DHT22;46834;51.100;6.886;2023-03-02T13:13:37;11.50;31.50
60965;DHT22;46834;51.100;6.886;2023-03-02T13:16:24;11.50;31.10
60965;DHT22;46834;51.100;6.886;2023-03-02T13:18:55;11.60;31.20
60965;DHT22;46834;51.100;6.886;2023-03-02T13:21:37;11.60;31.40
60965;DHT22;46834;51.100;6.886;2023-03-02T13:26:57;11.60;30.60
60965;DHT22;46834;51.100;6.886;2023-03-02T13:29:38;11.70;30.80
60965;DHT22;46834;51.100;6.886;2023-03-02T13:32:25;11.70;31.30
60965;DHT22;46834;51.100;6.886;2023-03-02T13:34:59;11.70;30.70
60965;DHT22;46834;51.100;6.886;2023-03-02T13:37:38;11.80;31.40
60965;DHT22;46834;51.100;6.886;2023-03-02T13:40:44;11.80;31.00
60965;DHT22;46834;51.100;6.886;2023-03-02T13:48:40;11.90;30.60
60965;DHT22;46834;51.100;6.886;2023-03-02T13:51:17;12.00;31.30
60965;DHT22;46834;51.100;6.886;2023-03-02T13:53:53;12.00;30.90
60965;DHT22;46834;51.100;6.886;2023-03-02T13:56:33;12.00;30.90
60965;DHT22;46834;51.100;6.886;2023-03-02T13:59:12;12.10;31.20
60965;DHT22;46834;51.100;6.886;2023-03-02T14:01:39;12.10;30.90
60965;DHT22;46834;51.100;6.886;2023-03-02T14:04:15;12.10;31.10
60965;DHT22;46834;51.100;6.886;2023-03-02T14:06:45;12.20;31.00
60965;DHT22;46834;51.100;6.886;2023-03-02T14:09:12;12.20;31.10
60965;DHT22;46834;51.100;6.886;2023-03-02T14:11:40;12.20;31.10
60965;DHT22;46834;51.100;6.886;2023-03-02T14:14:15;12.20;31.00
60965;DHT22;46834;51.100;6.886;2023-03-02T14:16:43;12.30;30.90
60965;DHT22;46834;51.100;6.886;2023-03-02T14:19:11;12.30;31.10
60965;DHT22;46834;51.100;6.886;2023-03-02T14:21:38;12.30;30.90
60965;DHT22;46834;51.100;6.886;2023-03-02T14:24:05;12.30;31.00
60965;DHT22;46834;51.100;6.886;2023-03-02T14:26:39;12.30;30.90
60965;DHT22;46834;51.100;6.886;2023-03-02T14:29:14;12.30;30.50
60965;DHT22;46834;51.100;6.886;2023-03-02T14:31:45;12.40;30.60
60965;DHT22;46834;51.100;6.886;2023-03-02T14:34:14;12.40;30.60
60965;DHT22;46834;51.100;6.886;2023-03-02T14:36:43;12.40;30.20
60965;DHT22;46834;51.100;6.886;2023-03-02T14:39:22;12.40;30.10
60965;DHT22;46834;51.100;6.886;2023-03-02T14:42:05;12.40;29.80
60965;DHT22;46834;51.100;6.886;2023-03-02T14:44:45;12.40;30.10
60965;DHT22;46834;51.100;6.886;2023-03-02T14:47:12;12.40;30.00
60965;DHT22;46834;51.100;6.886;2023-03-02T14:49:42;12.40;30.00
60965;DHT22;46834;51.100;6.886;2023-03-02T14:52:25;12.40;29.80
60965;DHT22;46834;51.100;6.886;2023-03-02T14:55:11;12.40;29.60
60965;DHT22;46834;51.100;6.886;2023-03-02T14:57:40;12.40;29.70
60965;DHT22;46834;51.100;6.886;2023-03-02T15:00:10;12.40;30.00
60965;DHT22;46834;51.100;6.886;2023-03-02T15:02:38;12.40;29.90
60965;DHT22;46834;51.100;6.886;2023-03-02T15:05:04;12.40;30.00
60965;DHT22;46834;51.100;6.886;2023-03-02T15:07:30;12.40;30.00
60965;DHT22;46834;51.100;6.886;2023-03-02T15:09:56;12.40;29.90
60965;DHT22;46834;51.100;6.886;2023-03-02T15:12:23;12.40;29.80
60965;DHT22;46834;51.100;6.886;2023-03-02T15:14:49;12.40;29.80
60965;DHT22;46834;51.100;6.886;2023-03-02T15:17:15;12.50;29.80
60965;DHT22;46834;51.100;6.886;2023-03-02T15:19:41;12.50;29.80
60965;DHT22;46834;51.100;6.886;2023-03-02T15:22:06;12.50;29.80
60965;DHT22;46834;51.100;6.886;2023-03-02T15:24:32;12.50;29.80
60965;DHT22;46834;51.100;6.886;2023-03-02T15:26:58;12.50;29.70
60965;DHT22;46834;51.100;6.886;2023-03-02T15:29:23;12.50;29.60
60965;DHT22;46834;51.100;6.886;2023-03-02T15:31:53;12.50;29.60
60965;DHT22;46834;51.100;6.886;2023-03-02T15:34:19;12.50;29.40
60965;DHT22;46834;51.100;6.886;2023-03-02T15:36:44;12.50;29.60
60965;DHT22;46834;51.100;6.886;2023-03-02T15:39:13;12.50;29.60
60965;DHT22;46834;51.100;6.886;2023-03-02T15:41:41;12.50;29.40
60965;DHT22;46834;51.100;6.886;2023-03-02T15:44:10;12.50;29.50
60965;DHT22;46834;51.100;6.886;2023-03-02T15:46:41;12.50;29.50
60965;DHT22;46834;51.100;6.886;2023-03-02T15:49:07;12.50;29.50
60965;DHT22;46834;51.100;6.886;2023-03-02T15:51:33;12.50;29.50
60965;DHT22;46834;51.100;6.886;2023-03-02T15:53:59;12.40;29.40
60965;DHT22;46834;51.100;6.886;2023-03-02T15:56:24;12.40;29.40
60965;DHT22;46834;51.100;6.886;2023-03-02T15:58:50;12.40;29.40
60965;DHT22;46834;51.100;6.886;2023-03-02T16:01:16;12.40;29.30
60965;DHT22;46834;51.100;6.886;2023-03-02T16:03:42;12.40;29.30
60965;DHT22;46834;51.100;6.886;2023-03-02T16:06:09;12.30;29.20
60965;DHT22;46834;51.100;6.886;2023-03-02T16:08:36;12.30;29.20
60965;DHT22;46834;51.100;6.886;2023-03-02T16:11:04;12.30;29.10
60965;DHT22;46834;51.100;6.886;2023-03-02T16:13:31;12.30;29.10
60965;DHT22;46834;51.100;6.886;2023-03-02T16:16:04;12.20;29.10
60965;DHT22;46834;51.100;6.886;2023-03-02T16:18:31;12.20;28.90
60965;DHT22;46834;51.100;6.886;2023-03-02T16:20:57;12.10;29.10
60965;DHT22;46834;51.100;6.886;2023-03-02T16:23:23;12.10;29.10
60965;DHT22;46834;51.100;6.886;2023-03-02T16:25:49;12.10;29.10
60965;DHT22;46834;51.100;6.886;2023-03-02T16:28:16;12.00;29.10
60965;DHT22;46834;51.100;6.886;2023-03-02T16:30:43;12.00;29.10
60965;DHT22;46834;51.100;6.886;2023-03-02T16:33:13;12.00;29.10
60965;DHT22;46834;51.100;6.886;2023-03-02T16:35:40;11.90;29.00
60965;DHT22;46834;51.100;6.886;2023-03-02T16:38:07;11.90;29.20
60965;DHT22;46834;51.100;6.886;2023-03-02T16:40:35;11.80;29.10
60965;DHT22;46834;51.100;6.886;2023-03-02T16:43:03;11.80;29.10
60965;DHT22;46834;51.100;6.886;2023-03-02T16:45:31;11.80;29.20
60965;DHT22;46834;51.100;6.886;2023-03-02T16:47:57;11.70;29.10
60965;DHT22;46834;51.100;6.886;2023-03-02T16:50:23;11.70;29.20
60965;DHT22;46834;51.100;6.886;2023-03-02T16:52:48;11.60;29.20
60965;DHT22;46834;51.100;6.886;2023-03-02T16:55:17;11.60;29.20
60965;DHT22;46834;51.100;6.886;2023-03-02T16:57:44;11.50;29.20
60965;DHT22;46834;51.100;6.886;2023-03-02T17:00:13;11.40;29.20
60965;DHT22;46834;51.100;6.886;2023-03-02T17:02:41;11.40;29.10
60965;DHT22;46834;51.100;6.886;2023-03-02T17:05:07;11.30;29.20
60965;DHT22;46834;51.100;6.886;2023-03-02T17:07:33;11.20;29.10
60965;DHT22;46834;51.100;6.886;2023-03-02T17:09:59;11.20;29.20
60965;DHT22;46834;51.100;6.886;2023-03-02T17:12:25;11.10;29.10
60965;DHT22;46834;51.100;6.886;2023-03-02T17:14:50;11.00;29.20
60965;DHT22;46834;51.100;6.886;2023-03-02T17:17:16;10.90;29.10